Time;durP1;ratioP1;P1;durP2;ratioP2;P2;SDS_P1;SDS_P2;PMS_P1;PMS_P2;Temp;Humidity;BMP_temperature;BMP_pressure;BME280_temperature;BME280_humidity;BME280_pressure;Samples;Min_cycle;Max_cycle;Signal;HPM_P1;HPM_P2
2021/12/02 00:02:07;;;;;;;3.58;1.38;;;4.90;99.90;;;;;;20754324;28;20399;-77
2021/12/02 00:12:09;;;;;;;0.95;0.90;;;4.80;99.90;;;;;;20747420;28;20030;-76
2021/12/02 00:22:11;;;;;;;2.90;0.98;;;4.80;99.90;;;;;;20744848;28;20148;-77
2021/12/02 00:32:12;;;;;;;3.30;1.20;;;4.80;99.90;;;;;;20744859;28;20061;-77
2021/12/02 00:42:13;;;;;;;;;;;4.80;99.90;;;;;;20744506;28;20037;-77
2021/12/02 00:52:15;;;;;;;3.85;1.27;;;4.80;99.90;;;;;;20745615;28;19964;-77
2021/12/02 01:02:18;;;;;;;1.38;0.60;;;4.80;99.90;;;;;;20740920;28;20034;-77
2021/12/02 01:12:18;;;;;;;4.65;1.00;;;4.90;99.90;;;;;;20741822;28;20033;-77
2021/12/02 01:22:20;;;;;;;6.28;1.38;;;4.90;99.90;;;;;;20743747;28;20033;-77
2021/12/02 01:32:21;;;;;;;1.65;0.80;;;4.90;99.90;;;;;;20747074;28;20472;-76
2021/12/02 01:42:24;;;;;;;6.22;1.38;;;4.80;99.90;;;;;;20756207;28;20022;-77
2021/12/02 01:52:31;;;;;;;0.75;0.70;;;4.80;99.90;;;;;;20755226;28;20045;-77
2021/12/02 02:02:36;;;;;;;0.95;0.50;;;4.70;99.90;;;;;;20754543;28;20116;-77
2021/12/02 02:12:37;;;;;;;4.28;1.30;;;4.70;99.90;;;;;;20766006;23;20504;-76
2021/12/02 02:22:39;;;;;;;;;;;4.60;99.90;;;;;;20752835;28;20052;-76
2021/12/02 02:32:40;;;;;;;7.10;2.00;;;4.60;99.90;;;;;;20750634;28;19917;-76
2021/12/02 02:42:41;;;;;;;;;;;4.50;99.90;;;;;;20751155;28;20515;-76
2021/12/02 02:52:43;;;;;;;3.00;0.70;;;4.50;99.90;;;;;;20750487;28;20342;-76
2021/12/02 03:02:57;;;;;;;16.15;2.53;;;4.40;99.90;;;;;;20749488;28;20029;-75
2021/12/02 03:23:14;;;;;;;0.50;0.50;;;4.40;99.90;;;;;;20748327;28;20042;-76
2021/12/02 03:33:15;;;;;;;3.35;0.75;;;4.30;99.90;;;;;;20745934;28;20424;-74
2021/12/02 03:43:16;;;;;;;0.45;0.40;;;4.30;99.90;;;;;;20745373;28;20072;-75
2021/12/02 03:53:17;;;;;;;2.78;0.80;;;4.40;99.90;;;;;;20745070;28;20038;-75
2021/12/02 04:03:18;;;;;;;6.25;1.40;;;4.40;99.90;;;;;;20745332;28;20132;-75
2021/12/02 04:13:24;;;;;;;0.38;0.38;;;4.30;99.90;;;;;;20744559;28;20065;-76
2021/12/02 04:23:25;;;;;;;3.25;0.60;;;4.20;99.90;;;;;;20744198;28;20084;-75
2021/12/02 04:33:26;;;;;;;5.68;0.70;;;4.20;99.90;;;;;;20743314;28;20476;-75
2021/12/02 04:43:27;;;;;;;3.88;0.57;;;4.20;99.90;;;;;;20742162;28;20452;-75
2021/12/02 04:53:28;;;;;;;2.17;0.60;;;4.20;99.90;;;;;;20742905;28;20034;-74
2021/12/02 05:03:28;;;;;;;;;;;3.80;99.90;;;;;;20742829;28;20160;-74
2021/12/02 05:13:29;;;;;;;4.65;0.70;;;3.70;99.90;;;;;;20757630;28;20303;-74
2021/12/02 05:23:30;;;;;;;;;;;3.60;99.90;;;;;;20757750;28;20053;-75
2021/12/02 05:33:31;;;;;;;1.80;0.85;;;3.60;99.90;;;;;;20755691;28;19936;-75
2021/12/02 05:43:32;;;;;;;;;;;3.60;99.90;;;;;;20755311;28;20058;-75
2021/12/02 05:53:32;;;;;;;2.30;1.02;;;3.80;99.90;;;;;;20755298;28;19936;-75
2021/12/02 06:03:36;;;;;;;;;;;3.80;99.90;;;;;;20754912;28;20034;-75
2021/12/02 06:13:38;;;;;;;2.00;0.90;;;3.80;99.90;;;;;;20750347;28;19913;-73
2021/12/02 06:23:40;;;;;;;2.75;1.27;;;3.90;99.90;;;;;;20751637;28;20587;-74
2021/12/02 06:33:41;;;;;;;3.28;1.60;;;3.80;99.90;;;;;;20751450;28;20125;-75
2021/12/02 06:43:42;;;;;;;;;;;3.70;99.90;;;;;;20751733;28;20065;-75
2021/12/02 06:53:43;;;;;;;8.23;1.63;;;3.80;99.90;;;;;;20748398;28;19918;-74
2021/12/02 07:03:43;;;;;;;;;;;3.80;99.90;;;;;;20750173;28;20272;-75
2021/12/02 07:13:47;;;;;;;9.83;3.10;;;3.70;99.90;;;;;;20748874;28;20011;-75
2021/12/02 07:23:48;;;;;;;6.47;3.00;;;3.70;99.90;;;;;;20748508;28;20273;-74
2021/12/02 07:33:53;;;;;;;12.25;2.72;;;3.70;99.90;;;;;;20747014;28;20124;-74
2021/12/02 07:43:54;;;;;;;7.07;2.60;;;3.70;99.90;;;;;;20747069;28;20501;-75
2021/12/02 07:53:58;;;;;;;;;;;3.70;99.90;;;;;;20746755;28;20037;-76
2021/12/02 08:03:58;;;;;;;7.95;3.08;;;3.80;99.90;;;;;;20745952;28;19913;-75
2021/12/02 08:13:59;;;;;;;;;;;3.80;99.90;;;;;;20767072;22;20128;-76
2021/12/02 08:24:00;;;;;;;12.63;2.65;;;3.80;99.90;;;;;;20744747;28;19913;-76
2021/12/02 08:34:01;;;;;;;11.98;2.47;;;3.80;99.90;;;;;;20743636;28;20056;-76
2021/12/02 08:44:02;;;;;;;5.97;1.67;;;3.80;99.90;;;;;;20741429;28;20030;-75
2021/12/02 08:54:02;;;;;;;;;;;3.90;99.90;;;;;;20743143;28;20026;-76
2021/12/02 09:04:04;;;;;;;5.65;3.10;;;3.90;99.90;;;;;;20741723;28;19909;-76
2021/12/02 09:14:05;;;;;;;5.80;2.08;;;4.00;99.90;;;;;;20741929;28;20515;-75
2021/12/02 09:24:06;;;;;;;3.85;1.70;;;4.10;99.90;;;;;;20743692;28;20044;-78
2021/12/02 09:34:07;;;;;;;;;;;4.20;99.90;;;;;;20744923;28;20125;-77
2021/12/02 09:44:08;;;;;;;8.53;2.07;;;4.50;99.90;;;;;;20746021;28;19909;-78
2021/12/02 09:54:22;;;;;;;6.72;1.70;;;4.50;99.90;;;;;;20750795;28;20281;-77
2021/12/02 10:04:24;;;;;;;6.05;1.60;;;4.40;99.90;;;;;;20761460;28;20034;-77
2021/12/02 10:14:28;;;;;;;9.45;2.72;;;4.40;99.90;;;;;;20756055;28;20385;-77
2021/12/02 10:24:30;;;;;;;8.43;2.55;;;4.50;99.90;;;;;;20756985;28;20029;-78
2021/12/02 10:34:31;;;;;;;7.10;2.78;;;4.60;99.90;;;;;;20754253;28;20121;-77
2021/12/02 10:44:35;;;;;;;8.00;2.35;;;4.70;99.90;;;;;;20755338;28;20030;-77
2021/12/02 10:54:38;;;;;;;17.13;4.70;;;4.70;99.90;;;;;;20752690;28;20092;-77
2021/12/02 11:04:44;;;;;;;7.00;2.03;;;4.80;99.90;;;;;;20750970;28;20034;-78
2021/12/02 11:14:54;;;;;;;5.60;1.83;;;4.90;99.90;;;;;;20751056;28;20022;-77
2021/12/02 11:24:56;;;;;;;7.03;2.00;;;4.90;99.90;;;;;;20748441;28;20026;-77
2021/12/02 11:35:06;;;;;;;7.63;2.08;;;4.80;99.90;;;;;;20748211;28;20520;-77
2021/12/02 11:45:11;;;;;;;4.50;1.57;;;4.90;99.90;;;;;;20749507;28;20053;-78
2021/12/02 11:55:22;;;;;;;5.25;1.20;;;4.50;99.90;;;;;;20756893;28;20091;-78
2021/12/02 12:05:27;;;;;;;13.95;5.20;;;3.80;99.90;;;;;;20747305;28;20091;-76
2021/12/02 12:15:57;;;;;;;2.53;1.60;;;4.20;99.90;;;;;;20744043;28;20515;-77
2021/12/02 12:26:18;;;;;;;4.13;1.38;;;4.40;99.90;;;;;;20743087;28;20042;-77
2021/12/02 12:36:36;;;;;;;1.00;0.50;;;4.30;99.90;;;;;;20744278;28;20069;-77
2021/12/02 12:46:54;;;;;;;1.55;0.68;;;3.90;99.90;;;;;;20745489;28;20427;-77
2021/12/02 12:57:06;;;;;;;4.32;0.82;;;3.80;99.90;;;;;;20744767;28;20599;-77
2021/12/02 13:07:14;;;;;;;2.47;0.60;;;3.80;99.90;;;;;;20743635;28;20026;-77
2021/12/02 13:17:34;;;;;;;1.05;0.40;;;3.70;99.90;;;;;;20741870;28;20029;-77
2021/12/02 13:27:36;;;;;;;9.50;4.45;;;3.60;99.90;;;;;;20746371;28;20049;-77
2021/12/02 13:37:37;;;;;;;3.83;1.92;;;3.50;99.90;;;;;;20756505;28;20033;-77
2021/12/02 13:47:41;;;;;;;5.57;2.33;;;3.20;99.90;;;;;;20756067;28;20415;-78
2021/12/02 13:57:47;;;;;;;2.25;1.25;;;3.20;99.90;;;;;;20757854;28;20033;-78
2021/12/02 14:07:49;;;;;;;1.90;0.90;;;3.20;99.90;;;;;;20757046;28;20388;-78
2021/12/02 14:17:58;;;;;;;0.90;0.90;;;3.10;99.90;;;;;;20769287;23;20046;-77
2021/12/02 14:28:20;;;;;;;4.28;1.77;;;3.00;99.90;;;;;;20727102;28;20053;-78
2021/12/02 14:38:29;;;;;;;3.63;1.58;;;3.00;99.90;;;;;;20698776;28;20504;-78
2021/12/02 14:48:30;;;;;;;5.63;2.25;;;2.90;99.90;;;;;;20716338;28;20049;-77
2021/12/02 14:58:32;;;;;;;2.70;1.42;;;2.90;99.90;;;;;;20716137;28;20030;-77
2021/12/02 15:08:34;;;;;;;1.17;0.90;;;2.80;99.90;;;;;;20715751;28;20029;-78
2021/12/02 15:18:35;;;;;;;1.55;1.10;;;2.60;99.90;;;;;;20712616;28;20042;-77
2021/12/02 15:28:49;;;;;;;2.53;0.90;;;2.40;99.90;;;;;;20712598;28;20716;-76
2021/12/02 15:38:52;;;;;;;2.08;1.10;;;2.40;99.90;;;;;;20711469;28;20393;-77
2021/12/02 15:48:54;;;;;;;1.45;1.00;;;2.30;99.90;;;;;;20711285;28;20038;-76
2021/12/02 15:58:55;;;;;;;1.92;1.30;;;2.20;99.90;;;;;;20709361;28;20389;-77
2021/12/02 16:19:00;;;;;;;4.32;1.85;;;2.10;99.90;;;;;;20706269;28;20065;-75
2021/12/02 16:29:00;;;;;;;3.40;2.42;;;2.10;99.90;;;;;;20707619;28;20036;-77
2021/12/02 16:39:02;;;;;;;6.28;3.90;;;1.90;99.90;;;;;;20706169;28;20064;-79
2021/12/02 16:49:03;;;;;;;8.77;5.45;;;1.80;99.90;;;;;;20706399;28;20111;-78
2021/12/02 16:59:04;;;;;;;8.52;5.75;;;1.70;99.90;;;;;;20708413;28;20503;-78
2021/12/02 17:09:05;;;;;;;10.50;5.60;;;1.60;99.90;;;;;;20721996;28;20095;-78
2021/12/02 17:19:06;;;;;;;9.43;5.60;;;1.60;99.90;;;;;;20722336;28;20061;-77
2021/12/02 17:29:07;;;;;;;11.43;6.00;;;1.50;99.90;;;;;;20720336;28;20022;-77
2021/12/02 17:39:10;;;;;;;8.63;5.20;;;1.60;99.90;;;;;;20720613;28;20068;-77
2021/12/02 17:49:12;;;;;;;9.10;5.65;;;1.60;99.90;;;;;;20719628;28;20037;-78
2021/12/02 17:59:12;;;;;;;11.15;5.88;;;1.60;99.90;;;;;;20718980;28;20044;-77
2021/12/02 18:09:13;;;;;;;10.93;6.18;;;1.60;99.90;;;;;;20717290;28;20075;-78
2021/12/02 18:19:14;;;;;;;12.95;7.20;;;1.40;99.90;;;;;;20716534;28;20033;-79
2021/12/02 18:29:16;;;;;;;25.30;9.68;;;1.20;99.90;;;;;;20718178;28;20030;-78
2021/12/02 18:39:18;;;;;;;23.55;9.02;;;1.10;99.90;;;;;;20719704;28;20030;-78
2021/12/02 18:49:19;;;;;;;17.73;7.10;;;1.10;99.90;;;;;;20714900;28;20042;-77
2021/12/02 18:59:20;;;;;;;12.45;6.35;;;1.10;99.90;;;;;;20712234;28;20026;-77
2021/12/02 19:29:47;;;;;;;18.17;4.85;;;1.10;99.90;;;;;;20707431;28;20447;-78
2021/12/02 19:39:48;;;;;;;10.75;4.88;;;1.00;99.90;;;;;;20707395;28;20061;-77
2021/12/02 19:49:49;;;;;;;12.85;4.95;;;1.00;99.90;;;;;;20706941;28;20113;-78
2021/12/02 19:59:50;;;;;;;10.40;5.40;;;0.90;99.90;;;;;;20706496;28;20034;-77
2021/12/02 20:09:51;;;;;;;14.95;7.43;;;1.00;99.90;;;;;;20706054;28;20127;-79
2021/12/02 20:20:00;;;;;;;12.25;6.03;;;0.90;99.90;;;;;;20721000;22;20045;-77
2021/12/02 20:30:01;;;;;;;18.10;6.32;;;0.90;99.90;;;;;;20704124;28;20140;-73
2021/12/02 20:40:04;;;;;;;11.45;6.53;;;0.80;99.90;;;;;;20701731;28;20045;-75
2021/12/02 20:50:08;;;;;;;13.27;6.95;;;0.80;99.90;;;;;;20701782;28;20057;-74
2021/12/02 21:00:15;;;;;;;13.20;6.50;;;0.70;99.90;;;;;;20702805;28;20438;-75
2021/12/02 21:10:16;;;;;;;16.35;7.70;;;0.70;99.90;;;;;;20705852;28;20044;-74
2021/12/02 21:20:22;;;;;;;10.63;6.32;;;0.80;99.90;;;;;;20704763;28;20062;-74
2021/12/02 21:30:24;;;;;;;8.73;5.15;;;0.80;99.90;;;;;;20686352;28;20712;-74
2021/12/02 21:40:27;;;;;;;11.45;5.18;;;0.60;99.90;;;;;;20704388;28;20034;-75
2021/12/02 21:50:30;;;;;;;18.17;4.85;;;0.70;99.90;;;;;;20710493;28;20564;-74
2021/12/02 22:00:45;;;;;;;9.10;4.68;;;0.70;99.90;;;;;;20715545;28;20033;-73
2021/12/02 22:10:46;;;;;;;7.97;4.70;;;0.70;99.90;;;;;;20716712;28;20037;-75
2021/12/02 22:20:47;;;;;;;10.35;4.85;;;0.70;99.90;;;;;;20717882;28;20083;-75
2021/12/02 22:30:48;;;;;;;11.23;5.47;;;0.70;99.90;;;;;;20713269;28;20608;-74
2021/12/02 22:40:50;;;;;;;12.57;5.05;;;0.70;99.90;;;;;;20711898;28;20034;-75
2021/12/02 22:50:53;;;;;;;10.93;5.70;;;0.70;99.90;;;;;;20711429;28;20125;-74
2021/12/02 23:00:57;;;;;;;8.07;5.22;;;0.70;99.90;;;;;;20709950;28;20034;-74
2021/12/02 23:10:59;;;;;;;13.32;8.20;;;0.60;99.90;;;;;;20709671;28;20687;-75
2021/12/02 23:21:02;;;;;;;13.63;6.22;;;0.60;99.90;;;;;;20709049;28;20061;-75
2021/12/02 23:31:03;;;;;;;12.93;6.13;;;0.60;99.90;;;;;;20708208;28;20053;-76
2021/12/02 23:41:05;;;;;;;31.10;7.68;;;0.60;99.90;;;;;;20707828;28;20040;-74
2021/12/02 23:51:10;;;;;;;28.88;10.15;;;0.60;99.90;;;;;;20705672;28;20049;-74
